Time;durP1;ratioP1;P1;durP2;ratioP2;P2;SDS_P1;SDS_P2;PMS_P1;PMS_P2;Temp;Humidity;BMP_temperature;BMP_pressure;BME280_temperature;BME280_humidity;BME280_pressure;Samples;Min_cycle;Max_cycle;Signal;HPM_P1;HPM_P2
2022/08/24 00:02:22;;;;;;;2.67;2.23;;;27.00;60.60;;;;;;5055533;28;20194;-89
2022/08/24 00:04:58;;;;;;;4.17;2.13;;;26.90;60.60;;;;;;5067049;28;20560;-89
2022/08/24 00:07:39;;;;;;;6.80;2.20;;;26.90;60.50;;;;;;5064626;28;20572;-89
2022/08/24 00:10:13;;;;;;;3.90;2.10;;;26.90;60.70;;;;;;5065673;28;20232;-89
2022/08/24 00:12:39;;;;;;;3.90;2.30;;;26.90;60.70;;;;;;5059392;28;20430;-89
2022/08/24 00:15:10;;;;;;;3.60;2.30;;;26.90;60.90;;;;;;5062573;28;20174;-89
2022/08/24 00:17:39;;;;;;;3.77;2.10;;;26.90;61.00;;;;;;5059723;28;20163;-89
2022/08/24 00:20:10;;;;;;;3.87;2.30;;;26.90;61.30;;;;;;5063153;28;20166;-89
2022/08/24 00:22:37;;;;;;;3.00;2.20;;;26.90;61.40;;;;;;5068935;28;20173;-89
2022/08/24 00:25:11;;;;;;;2.67;2.13;;;26.90;61.40;;;;;;5055730;28;20388;-89
2022/08/24 00:27:39;;;;;;;2.60;2.40;;;26.80;61.70;;;;;;5062224;28;20186;-89
2022/08/24 00:30:12;;;;;;;3.60;2.30;;;26.80;61.90;;;;;;5064672;28;20222;-89
2022/08/24 00:32:39;;;;;;;4.17;2.40;;;26.80;62.10;;;;;;5055727;28;20248;-89
2022/08/24 00:35:08;;;;;;;3.23;2.30;;;26.80;62.10;;;;;;5061395;28;20752;-89
2022/08/24 00:37:36;;;;;;;2.83;2.37;;;26.80;62.50;;;;;;5063599;28;20624;-89
2022/08/24 00:40:10;;;;;;;3.77;2.10;;;26.80;62.30;;;;;;5060002;28;20518;-89
2022/08/24 00:42:41;;;;;;;4.27;2.30;;;26.80;62.50;;;;;;5063281;28;20455;-89
2022/08/24 00:45:16;;;;;;;2.23;2.00;;;26.80;62.80;;;;;;5042794;28;20228;-89
2022/08/24 00:48:17;;;;;;;2.53;2.13;;;26.80;62.90;;;;;;5036240;28;20804;-89
2022/08/24 00:50:52;;;;;;;2.63;2.10;;;26.70;62.90;;;;;;5054413;28;20205;-89
2022/08/24 00:53:29;;;;;;;3.77;2.00;;;26.70;63.10;;;;;;5051794;28;20462;-89
2022/08/24 00:56:00;;;;;;;3.53;2.33;;;26.70;63.10;;;;;;5087869;28;20547;-90
2022/08/24 00:58:51;;;;;;;3.03;2.17;;;26.70;63.40;;;;;;5059781;28;20194;-89
2022/08/24 01:01:26;;;;;;;4.77;2.00;;;26.70;63.70;;;;;;5069331;28;20181;-90
2022/08/24 01:03:53;;;;;;;4.97;1.97;;;26.70;63.80;;;;;;5041765;28;20170;-89
2022/08/24 01:06:27;;;;;;;3.20;1.70;;;26.60;63.90;;;;;;5078538;28;20216;-90
2022/08/24 01:08:56;;;;;;;3.03;2.40;;;26.60;64.20;;;;;;5050209;28;20210;-91
2022/08/24 01:11:25;;;;;;;3.53;2.17;;;26.60;64.30;;;;;;5061500;28;20317;-91
2022/08/24 01:13:57;;;;;;;2.57;2.37;;;26.60;64.60;;;;;;5045454;28;20226;-91
2022/08/24 01:19:35;;;;;;;3.93;2.70;;;26.60;65.70;;;;;;5082940;28;20174;-92
2022/08/24 01:22:39;;;;;;;4.93;2.33;;;26.50;66.80;;;;;;5058380;28;20419;-91
2022/08/24 01:25:06;;;;;;;4.40;2.40;;;26.50;66.20;;;;;;5060251;28;20247;-91
2022/08/24 01:27:34;;;;;;;4.33;2.40;;;26.50;66.40;;;;;;5073691;28;20312;-91
2022/08/24 01:30:03;;;;;;;3.57;2.20;;;26.50;66.80;;;;;;5063879;28;20270;-91
2022/08/24 01:32:32;;;;;;;2.50;2.17;;;26.50;67.20;;;;;;5069623;28;20182;-91
2022/08/24 01:34:58;;;;;;;4.00;2.33;;;26.40;66.80;;;;;;5057751;28;20508;-91
2022/08/24 01:37:24;;;;;;;2.50;2.30;;;26.40;66.90;;;;;;5044526;28;20250;-92
2022/08/24 01:39:57;;;;;;;3.67;2.20;;;26.40;67.30;;;;;;5065435;28;20171;-91
2022/08/24 01:42:28;;;;;;;3.13;2.53;;;26.40;67.10;;;;;;5061135;28;20269;-91
2022/08/24 01:44:57;;;;;;;3.53;2.57;;;26.40;68.10;;;;;;5088849;28;20167;-92
2022/08/24 01:47:23;;;;;;;2.73;2.07;;;26.30;68.00;;;;;;5085827;22;20230;-69
2022/08/24 01:49:51;;;;;;;2.23;2.00;;;26.30;67.80;;;;;;5065611;28;20182;-69
2022/08/24 01:52:21;;;;;;;2.87;2.03;;;26.30;67.80;;;;;;5100121;28;20265;-69
2022/08/24 01:54:47;;;;;;;2.50;2.30;;;26.40;67.90;;;;;;4995972;28;20342;-70
2022/08/24 01:57:13;;;;;;;2.70;2.30;;;26.40;67.80;;;;;;5045008;28;20198;-70
2022/08/24 01:59:40;;;;;;;3.50;2.00;;;26.30;67.70;;;;;;5059205;28;20332;-70
2022/08/24 02:02:12;;;;;;;2.97;2.30;;;26.40;67.80;;;;;;5074356;28;20642;-70
2022/08/24 02:04:44;;;;;;;4.30;2.97;;;26.40;67.80;;;;;;5038331;28;20186;-70
2022/08/24 02:07:10;;;;;;;3.00;2.70;;;26.40;67.80;;;;;;5018671;28;20446;-69
2022/08/24 02:09:44;;;;;;;2.70;2.50;;;26.30;68.00;;;;;;5038451;28;20557;-69
2022/08/24 02:12:11;;;;;;;3.13;2.53;;;26.30;68.10;;;;;;5068073;28;20195;-69
2022/08/24 02:14:38;;;;;;;2.70;2.00;;;26.30;68.60;;;;;;5036854;28;20512;-70
2022/08/24 02:17:09;;;;;;;2.50;2.20;;;26.30;68.50;;;;;;5063251;28;20185;-69
2022/08/24 02:19:35;;;;;;;5.27;2.50;;;26.30;68.70;;;;;;5068452;28;20180;-70
2022/08/24 02:22:02;;;;;;;3.13;2.00;;;26.30;69.10;;;;;;5062196;28;20537;-69
2022/08/24 02:24:31;;;;;;;4.53;2.47;;;26.30;69.20;;;;;;5065301;28;20176;-69
2022/08/24 02:27:07;;;;;;;3.67;2.60;;;26.30;69.80;;;;;;5009618;28;20506;-70
2022/08/24 02:29:40;;;;;;;3.43;2.57;;;26.20;70.20;;;;;;5051390;28;20174;-70
2022/08/24 02:32:15;;;;;;;4.43;2.47;;;26.30;69.50;;;;;;5055831;28;20420;-70
2022/08/24 02:34:42;;;;;;;3.97;2.60;;;26.20;69.70;;;;;;5047072;28;20178;-69
2022/08/24 02:37:17;;;;;;;3.33;2.50;;;26.20;69.60;;;;;;5041841;28;20947;-69
2022/08/24 02:39:44;;;;;;;2.67;2.47;;;26.20;69.60;;;;;;5048280;28;20605;-70
2022/08/24 02:42:19;;;;;;;4.33;2.57;;;26.20;69.70;;;;;;5043500;28;20657;-69
2022/08/24 02:44:48;;;;;;;4.07;2.23;;;26.20;69.60;;;;;;5039071;28;20659;-69
2022/08/24 02:47:22;;;;;;;2.17;2.03;;;26.20;69.80;;;;;;5036240;28;20186;-70
2022/08/24 02:49:48;;;;;;;3.13;2.20;;;26.20;69.70;;;;;;5050246;28;20215;-69
2022/08/24 02:52:19;;;;;;;3.83;2.60;;;26.20;70.00;;;;;;5077577;28;20661;-69
2022/08/24 02:54:46;;;;;;;2.77;2.40;;;26.10;70.40;;;;;;5050069;28;20183;-70
2022/08/24 02:57:12;;;;;;;4.67;2.40;;;26.10;70.30;;;;;;5016786;28;20185;-69
2022/08/24 02:59:38;;;;;;;3.40;3.10;;;26.10;70.40;;;;;;5041202;28;20298;-70
2022/08/24 03:02:05;;;;;;;2.50;2.30;;;26.10;70.40;;;;;;5040861;28;20184;-70
2022/08/24 03:04:34;;;;;;;3.43;2.60;;;26.10;70.50;;;;;;5030865;28;20229;-70
2022/08/24 03:07:03;;;;;;;2.53;2.33;;;26.10;70.60;;;;;;5030537;28;20607;-70
2022/08/24 03:09:35;;;;;;;3.50;2.37;;;26.10;70.50;;;;;;5034097;28;20202;-69
2022/08/24 03:12:01;;;;;;;3.47;2.70;;;26.10;70.60;;;;;;5029569;28;20207;-70
2022/08/24 03:14:31;;;;;;;2.90;2.40;;;26.10;70.40;;;;;;5025208;28;20203;-70
2022/08/24 03:17:00;;;;;;;2.77;2.20;;;26.10;70.50;;;;;;5056680;28;20183;-70
2022/08/24 03:19:26;;;;;;;3.27;2.70;;;26.10;70.70;;;;;;5036745;28;20272;-70
2022/08/24 03:21:53;;;;;;;2.50;2.30;;;26.10;70.70;;;;;;5061881;28;20253;-69
2022/08/24 03:24:20;;;;;;;2.53;2.30;;;26.00;70.80;;;;;;5073095;28;20428;-69
2022/08/24 03:26:46;;;;;;;2.83;2.33;;;26.00;71.10;;;;;;5057495;28;20469;-69
2022/08/24 03:29:15;;;;;;;2.47;2.20;;;26.00;71.30;;;;;;5069888;28;20179;-69
2022/08/24 03:31:41;;;;;;;3.60;2.50;;;26.00;71.40;;;;;;5052215;28;20222;-70
2022/08/24 03:34:07;;;;;;;3.17;2.40;;;26.00;71.80;;;;;;5058581;28;20188;-69
2022/08/24 03:36:32;;;;;;;3.10;2.23;;;26.00;71.50;;;;;;5049722;28;20183;-69
2022/08/24 03:38:58;;;;;;;2.77;2.40;;;26.00;71.50;;;;;;5069472;28;20190;-69
2022/08/24 03:41:36;;;;;;;2.73;2.53;;;26.00;71.60;;;;;;5049258;28;20356;-69
2022/08/24 03:44:04;;;;;;;3.90;2.40;;;25.90;71.60;;;;;;5039154;28;20189;-69
2022/08/24 03:46:37;;;;;;;3.10;2.40;;;25.90;71.90;;;;;;5049916;28;20203;-69
2022/08/24 03:49:08;;;;;;;3.37;2.40;;;25.90;72.10;;;;;;5074963;28;20516;-69
2022/08/24 03:51:36;;;;;;;3.43;2.50;;;25.90;72.80;;;;;;5053938;28;20211;-69
2022/08/24 03:54:03;;;;;;;2.47;2.27;;;25.90;72.30;;;;;;5079668;28;20194;-69
2022/08/24 03:56:29;;;;;;;3.30;2.40;;;25.90;72.50;;;;;;5066275;28;20193;-69
2022/08/24 03:58:56;;;;;;;3.10;2.30;;;25.90;72.60;;;;;;5062977;28;20360;-69
2022/08/24 04:01:22;;;;;;;2.67;2.40;;;25.90;72.70;;;;;;5072700;28;20355;-69
2022/08/24 04:03:52;;;;;;;3.53;2.80;;;25.90;72.80;;;;;;5079305;28;20584;-70
2022/08/24 04:06:19;;;;;;;3.13;2.40;;;25.80;72.80;;;;;;5067574;28;20328;-69
2022/08/24 04:08:48;;;;;;;2.60;2.30;;;25.80;73.00;;;;;;5075975;28;20187;-69
2022/08/24 04:11:18;;;;;;;3.30;2.30;;;25.80;73.30;;;;;;5053149;28;20207;-69
2022/08/24 04:13:50;;;;;;;4.03;2.27;;;25.80;73.10;;;;;;5065531;28;20598;-69
2022/08/24 04:16:26;;;;;;;3.30;2.70;;;25.80;73.10;;;;;;5028069;28;20561;-69
2022/08/24 04:19:01;;;;;;;4.40;2.87;;;25.80;73.30;;;;;;5054355;28;20281;-70
2022/08/24 04:21:38;;;;;;;8.17;3.20;;;25.80;73.30;;;;;;5042461;28;20260;-69
2022/08/24 04:24:10;;;;;;;6.37;2.80;;;25.80;73.30;;;;;;5060381;28;20202;-69
2022/08/24 04:26:41;;;;;;;6.87;2.80;;;25.80;73.30;;;;;;5055231;28;20176;-70
2022/08/24 04:29:13;;;;;;;4.17;2.70;;;25.70;73.50;;;;;;5089235;28;20175;-70
2022/08/24 04:31:42;;;;;;;6.10;2.80;;;25.70;73.50;;;;;;5061125;28;20211;-70
2022/08/24 04:34:09;;;;;;;6.33;3.30;;;25.70;73.80;;;;;;5073763;28;20175;-70
2022/08/24 04:36:45;;;;;;;6.77;2.83;;;25.70;73.90;;;;;;5075383;28;20240;-70
2022/08/24 04:39:12;;;;;;;6.53;2.90;;;25.70;74.20;;;;;;5052202;28;20206;-69
2022/08/24 04:41:41;;;;;;;8.57;2.80;;;25.70;74.30;;;;;;5057986;28;20218;-70
2022/08/24 04:44:07;;;;;;;4.03;2.60;;;25.70;74.40;;;;;;5070356;28;20549;-69
2022/08/24 04:46:34;;;;;;;5.73;2.73;;;25.70;74.50;;;;;;5065905;28;20643;-70
2022/08/24 04:49:00;;;;;;;8.67;3.00;;;25.70;74.60;;;;;;5053199;28;20184;-70
2022/08/24 04:51:26;;;;;;;4.33;2.90;;;25.70;74.70;;;;;;5066707;28;20759;-69
2022/08/24 04:53:52;;;;;;;3.87;2.33;;;25.70;74.60;;;;;;5051585;28;20175;-69
2022/08/24 04:56:23;;;;;;;5.87;3.10;;;25.70;74.60;;;;;;5067413;28;20206;-69
2022/08/24 04:58:50;;;;;;;5.90;2.60;;;25.70;74.90;;;;;;5085727;28;20260;-70
2022/08/24 05:01:19;;;;;;;4.40;2.83;;;25.70;74.90;;;;;;5068771;22;20546;-70
2022/08/24 05:03:48;;;;;;;3.97;2.63;;;25.70;74.80;;;;;;5092182;28;20171;-69
2022/08/24 05:06:28;;;;;;;3.87;2.70;;;25.70;75.00;;;;;;5093168;28;20192;-69
2022/08/24 05:08:54;;;;;;;4.50;3.00;;;25.70;75.10;;;;;;5112602;28;20162;-69
2022/08/24 05:11:23;;;;;;;5.00;2.73;;;25.70;74.90;;;;;;5094185;28;20587;-69
2022/08/24 05:13:53;;;;;;;5.97;2.77;;;25.70;74.80;;;;;;5090386;28;20170;-70
2022/08/24 05:16:20;;;;;;;7.17;2.80;;;25.80;74.60;;;;;;5108580;28;20190;-70
2022/08/24 05:18:47;;;;;;;6.17;2.83;;;25.80;74.30;;;;;;5108288;28;20204;-70
2022/08/24 05:21:17;;;;;;;4.50;2.83;;;25.90;74.10;;;;;;5079226;28;20174;-70
2022/08/24 05:23:43;;;;;;;5.70;2.97;;;25.90;74.10;;;;;;5106089;28;20174;-70
2022/08/24 05:26:24;;;;;;;4.83;2.87;;;25.90;73.70;;;;;;5109754;28;20166;-71
2022/08/24 05:29:01;;;;;;;3.57;2.37;;;26.00;73.30;;;;;;5111731;28;20198;-70
2022/08/24 05:31:30;;;;;;;4.57;2.80;;;26.10;73.10;;;;;;5109724;28;20317;-70
2022/08/24 05:34:02;;;;;;;5.60;2.93;;;26.10;72.90;;;;;;5093538;28;20170;-70
2022/08/24 05:36:34;;;;;;;5.23;3.43;;;26.20;72.90;;;;;;5092540;28;20170;-70
2022/08/24 05:39:04;;;;;;;6.33;3.63;;;26.30;72.60;;;;;;5087060;28;20177;-70
2022/08/24 05:41:33;;;;;;;5.23;4.00;;;26.40;75.20;;;;;;5082343;28;20170;-72
2022/08/24 05:44:03;;;;;;;5.47;3.50;;;26.40;71.50;;;;;;5086448;28;20174;-70
2022/08/24 05:46:34;;;;;;;2.90;2.50;;;26.60;70.50;;;;;;5088893;28;20179;-70
2022/08/24 05:49:00;;;;;;;6.73;2.90;;;26.70;68.50;;;;;;5087994;28;20543;-70
2022/08/24 05:51:49;;;;;;;5.47;3.00;;;26.80;66.80;;;;;;5126671;28;20201;-70
2022/08/24 05:54:14;;;;;;;4.90;3.03;;;26.90;65.80;;;;;;5112525;27;20558;-70
2022/08/24 05:56:41;;;;;;;4.03;3.10;;;27.10;64.60;;;;;;5114303;28;20170;-69
2022/08/24 05:59:06;;;;;;;4.60;2.57;;;27.20;63.20;;;;;;5133115;27;20516;-70
2022/08/24 06:01:32;;;;;;;5.43;3.00;;;27.30;62.10;;;;;;5133094;27;20182;-70
2022/08/24 06:03:59;;;;;;;4.40;2.70;;;27.50;61.30;;;;;;5109554;27;20592;-70
2022/08/24 06:06:26;;;;;;;4.50;2.70;;;27.60;60.20;;;;;;5112651;27;20222;-70
2022/08/24 06:09:00;;;;;;;5.30;2.80;;;27.70;59.60;;;;;;5119125;27;20357;-71
2022/08/24 06:11:33;;;;;;;4.50;2.97;;;27.90;59.20;;;;;;5117343;27;20305;-70
2022/08/24 06:14:17;;;;;;;3.13;2.70;;;28.00;58.50;;;;;;5114585;27;20280;-70
2022/08/24 06:16:45;;;;;;;4.63;3.03;;;28.20;58.10;;;;;;5110985;27;20480;-70
2022/08/24 06:19:18;;;;;;;4.60;2.87;;;28.30;57.40;;;;;;5106378;27;20176;-70
2022/08/24 06:21:48;;;;;;;4.43;3.00;;;28.50;57.00;;;;;;5106986;27;20272;-70
2022/08/24 06:27:22;;;;;;;5.50;3.10;;;29.00;56.10;;;;;;5029671;28;20220;-70
2022/08/24 06:29:56;;;;;;;3.43;3.13;;;29.40;55.30;;;;;;5089665;28;20181;-70
2022/08/24 06:32:22;;;;;;;3.77;2.90;;;29.90;54.60;;;;;;5085714;28;20197;-70
2022/08/24 06:34:48;;;;;;;6.07;3.40;;;30.30;53.90;;;;;;5086717;28;20340;-70
2022/08/24 06:37:14;;;;;;;5.88;2.97;;;30.40;53.50;;;;;;5108356;28;20424;-70
2022/08/24 06:39:39;;;;;;;4.57;3.10;;;30.60;53.10;;;;;;5096607;28;20217;-70
2022/08/24 06:42:05;;;;;;;3.90;3.10;;;31.30;52.40;;;;;;5100819;28;20566;-70
2022/08/24 06:44:40;;;;;;;3.13;2.83;;;31.80;51.50;;;;;;5127542;27;20836;-69
2022/08/24 06:47:07;;;;;;;5.63;3.40;;;31.80;51.00;;;;;;5086477;28;20265;-69
2022/08/24 06:49:43;;;;;;;4.70;3.20;;;31.90;50.70;;;;;;5076744;28;20291;-70
2022/08/24 06:52:21;;;;;;;4.80;2.87;;;32.30;50.30;;;;;;5095971;28;20255;-70
2022/08/24 06:54:47;;;;;;;5.30;3.10;;;32.60;49.80;;;;;;5112398;27;20520;-70
2022/08/24 06:57:15;;;;;;;6.38;3.60;;;32.40;49.60;;;;;;5107875;27;20177;-70
2022/08/24 06:59:44;;;;;;;5.20;3.27;;;32.20;49.60;;;;;;5096408;28;20578;-70
2022/08/24 07:02:14;;;;;;;3.15;2.85;;;32.00;49.90;;;;;;5090056;28;20197;-70
2022/08/24 07:04:41;;;;;;;5.88;3.53;;;32.20;49.80;;;;;;5085817;28;20331;-70
2022/08/24 07:07:07;;;;;;;5.47;3.33;;;32.40;49.40;;;;;;5084503;28;20185;-70
2022/08/24 07:09:33;;;;;;;7.95;3.45;;;32.20;49.40;;;;;;5074891;27;20181;-70
2022/08/24 07:12:02;;;;;;;5.07;3.13;;;32.70;49.20;;;;;;5110151;27;20208;-70
2022/08/24 07:14:28;;;;;;;4.70;3.47;;;33.50;48.40;;;;;;5110229;27;20180;-69
2022/08/24 07:16:55;;;;;;;5.15;3.00;;;34.10;47.70;;;;;;5115641;27;20777;-70
2022/08/24 07:19:35;;;;;;;4.97;3.42;;;34.60;47.10;;;;;;5116003;27;20165;-70
2022/08/24 07:22:04;;;;;;;4.40;3.03;;;35.10;46.60;;;;;;5131847;27;20170;-70
2022/08/24 07:24:29;;;;;;;3.80;3.03;;;35.40;46.20;;;;;;5109741;27;20197;-70
2022/08/24 07:26:55;;;;;;;4.50;3.20;;;35.60;45.80;;;;;;5116865;27;20205;-70
2022/08/24 07:29:21;;;;;;;4.45;3.40;;;35.80;45.50;;;;;;5108050;27;20166;-70
2022/08/24 07:31:47;;;;;;;6.00;3.35;;;36.10;45.20;;;;;;5123606;27;20586;-70
2022/08/24 07:34:14;;;;;;;5.50;3.45;;;36.20;45.00;;;;;;5105959;27;20165;-71
2022/08/24 07:36:40;;;;;;;4.05;3.22;;;36.40;44.80;;;;;;5104282;27;20181;-69
2022/08/24 07:39:22;;;;;;;4.05;3.20;;;36.50;44.60;;;;;;5126452;27;20416;-69
2022/08/24 07:41:49;;;;;;;4.90;3.30;;;36.60;44.40;;;;;;5106983;27;20177;-70
2022/08/24 07:44:15;;;;;;;4.35;3.47;;;37.00;44.10;;;;;;5107853;27;20221;-70
2022/08/24 07:46:41;;;;;;;3.92;3.33;;;37.20;43.90;;;;;;5107610;27;20186;-70
2022/08/24 07:49:08;;;;;;;5.50;3.28;;;37.40;43.70;;;;;;5109891;27;20199;-70
2022/08/24 07:51:34;;;;;;;5.25;3.45;;;37.50;43.60;;;;;;5102384;27;20629;-70
2022/08/24 07:54:05;;;;;;;5.90;3.53;;;37.50;43.40;;;;;;5100999;27;20273;-70
2022/08/24 07:56:31;;;;;;;6.13;3.40;;;37.80;43.30;;;;;;5104790;27;20230;-70
2022/08/24 07:59:00;;;;;;;3.60;3.13;;;37.90;43.10;;;;;;5106275;27;20495;-70
2022/08/24 08:01:25;;;;;;;4.38;3.60;;;38.10;42.90;;;;;;5093969;28;20178;-69
2022/08/24 08:03:52;;;;;;;4.30;3.60;;;38.20;42.80;;;;;;5109206;28;20219;-70
2022/08/24 08:06:23;;;;;;;4.95;3.60;;;38.30;42.60;;;;;;5090189;28;20170;-70
2022/08/24 08:08:49;;;;;;;4.05;3.60;;;38.40;42.50;;;;;;5111445;28;20170;-70
2022/08/24 08:11:15;;;;;;;4.70;3.53;;;38.60;42.40;;;;;;5104545;28;20205;-70
2022/08/24 08:13:43;;;;;;;4.93;3.63;;;38.60;42.20;;;;;;5087831;28;20219;-70
2022/08/24 08:16:12;;;;;;;5.10;3.75;;;38.80;42.20;;;;;;5102298;28;20962;-70
2022/08/24 08:18:52;;;;;;;4.00;3.60;;;38.90;42.00;;;;;;5081789;28;20239;-72
2022/08/24 08:24:15;;;;;;;4.32;3.35;;;39.20;41.80;;;;;;5101969;28;20170;-70
2022/08/24 08:29:34;;;;;;;4.53;3.40;;;39.40;41.50;;;;;;5101752;28;20475;-70
2022/08/24 08:32:00;;;;;;;3.83;3.30;;;39.50;41.40;;;;;;5086346;28;20198;-71
2022/08/24 08:34:26;;;;;;;3.97;3.58;;;39.60;41.30;;;;;;5105876;28;20439;-71
2022/08/24 08:36:53;;;;;;;4.55;3.47;;;39.80;41.30;;;;;;5088663;28;20235;-70
2022/08/24 08:39:24;;;;;;;5.05;4.03;;;39.90;41.10;;;;;;5065432;28;20177;-70
2022/08/24 08:42:13;;;;;;;4.75;3.67;;;40.00;41.00;;;;;;5105057;28;20154;-70
2022/08/24 08:45:11;;;;;;;3.90;3.50;;;40.00;41.00;;;;;;5083309;28;20661;-70
2022/08/24 08:48:02;;;;;;;4.25;3.83;;;40.20;40.90;;;;;;5059986;28;20183;-71
2022/08/24 08:50:49;;;;;;;4.05;3.60;;;40.40;40.70;;;;;;5062825;28;22162;-70
2022/08/24 08:53:36;;;;;;;4.18;3.78;;;40.60;40.60;;;;;;5073767;28;20242;-70
2022/08/24 08:56:32;;;;;;;4.72;4.00;;;40.70;40.40;;;;;;5097087;28;20814;-71
2022/08/24 08:59:35;;;;;;;4.53;3.72;;;40.70;40.20;;;;;;5052623;28;20210;-70
2022/08/24 09:02:40;;;;;;;4.32;3.75;;;40.80;40.20;;;;;;5091016;28;20277;-70
2022/08/24 09:05:47;;;;;;;7.82;3.60;;;40.80;40.20;;;;;;5043760;28;20408;-70
2022/08/24 09:12:43;;;;;;;6.28;3.40;;;40.70;40.00;;;;;;5060169;28;20630;-71
2022/08/24 09:15:43;;;;;;;4.35;3.90;;;40.80;40.00;;;;;;5078425;28;20178;-71
2022/08/24 09:18:34;;;;;;;5.22;3.85;;;41.00;39.90;;;;;;5071668;28;20285;-70
2022/08/24 09:21:27;;;;;;;4.32;3.88;;;41.10;39.80;;;;;;5080868;28;20576;-71
2022/08/24 09:24:51;;;;;;;5.30;3.70;;;41.10;39.70;;;;;;5075722;28;20190;-71
2022/08/24 09:27:43;;;;;;;4.93;3.72;;;41.10;39.60;;;;;;5016270;28;20277;-70
2022/08/24 09:30:34;;;;;;;4.30;3.80;;;41.30;39.60;;;;;;5065448;28;20274;-70
2022/08/24 09:33:14;;;;;;;7.32;3.85;;;41.30;39.50;;;;;;5084299;28;20174;-71
2022/08/24 09:36:06;;;;;;;4.20;3.70;;;41.40;39.50;;;;;;5098784;28;20243;-71
2022/08/24 09:39:07;;;;;;;4.70;3.70;;;41.40;39.40;;;;;;5090544;28;20177;-71
2022/08/24 09:42:01;;;;;;;6.65;3.83;;;41.50;39.30;;;;;;5084921;28;20206;-71
2022/08/24 09:44:51;;;;;;;5.72;3.65;;;41.50;39.20;;;;;;5074198;28;20197;-70
2022/08/24 09:47:53;;;;;;;5.00;3.65;;;41.50;39.20;;;;;;5059046;28;20171;-71
2022/08/24 09:50:41;;;;;;;5.50;4.18;;;41.40;39.20;;;;;;5078347;28;20171;-71
2022/08/24 09:53:52;;;;;;;4.10;3.67;;;41.40;39.30;;;;;;5056975;28;20252;-70
2022/08/24 09:56:39;;;;;;;4.57;3.88;;;41.20;39.30;;;;;;5056197;28;20163;-71
2022/08/24 09:59:20;;;;;;;4.47;4.00;;;41.10;39.40;;;;;;5075048;28;20159;-70
2022/08/24 10:02:04;;;;;;;5.60;3.70;;;40.60;39.60;;;;;;5085676;28;20214;-70
2022/08/24 10:04:49;;;;;;;5.40;3.55;;;39.70;39.90;;;;;;5066468;28;20185;-70
2022/08/24 10:07:32;;;;;;;6.30;3.58;;;38.90;40.30;;;;;;5062923;28;20294;-71
2022/08/24 10:10:27;;;;;;;6.25;3.38;;;38.10;40.80;;;;;;5064458;28;20387;-71
2022/08/24 10:13:22;;;;;;;3.97;3.60;;;37.50;41.60;;;;;;5070609;28;20391;-71
2022/08/24 10:16:14;;;;;;;4.75;3.53;;;37.00;42.00;;;;;;5067508;28;20167;-70
2022/08/24 10:19:07;;;;;;;4.40;3.47;;;36.50;42.50;;;;;;5070319;28;20171;-71
2022/08/24 10:22:02;;;;;;;3.72;3.30;;;36.10;42.90;;;;;;5068719;28;20267;-70
2022/08/24 10:24:38;;;;;;;5.15;3.55;;;35.70;43.30;;;;;;5087800;28;20199;-71
2022/08/24 10:27:42;;;;;;;3.65;3.35;;;35.40;43.60;;;;;;5090367;28;20178;-70
2022/08/24 10:30:50;;;;;;;3.97;3.33;;;35.30;43.80;;;;;;5091601;28;20166;-71
2022/08/24 10:33:27;;;;;;;4.88;2.85;;;35.10;44.00;;;;;;5094361;28;20247;-71
2022/08/24 10:36:27;;;;;;;5.28;3.53;;;35.00;44.20;;;;;;5085859;28;20536;-70
2022/08/24 10:45:22;;;;;;;3.10;2.80;;;34.60;44.50;;;;;;5102502;28;20288;-70
2022/08/24 10:48:22;;;;;;;5.95;3.20;;;34.50;44.70;;;;;;5106151;28;20174;-70
2022/08/24 10:50:56;;;;;;;5.70;3.22;;;34.40;44.80;;;;;;5093495;28;20491;-70
2022/08/24 10:53:34;;;;;;;4.93;3.00;;;34.40;44.90;;;;;;5109091;28;20166;-70
2022/08/24 10:56:16;;;;;;;5.90;3.15;;;34.30;45.00;;;;;;5104756;28;20173;-70
2022/08/24 10:58:50;;;;;;;4.53;3.22;;;34.20;45.00;;;;;;5089230;28;20530;-70
2022/08/24 11:01:35;;;;;;;5.05;2.95;;;34.20;45.10;;;;;;5106106;28;20170;-70
2022/08/24 11:04:10;;;;;;;7.35;3.17;;;34.20;45.20;;;;;;5077627;28;20705;-70
2022/08/24 11:07:01;;;;;;;8.38;3.20;;;34.10;45.20;;;;;;5099328;28;20185;-70
2022/08/24 11:09:47;;;;;;;4.22;3.00;;;34.00;44.70;;;;;;5074672;28;20181;-70
2022/08/24 11:12:38;;;;;;;6.30;3.20;;;34.00;45.40;;;;;;5092765;28;20209;-70
2022/08/24 11:15:09;;;;;;;5.78;3.25;;;33.90;45.50;;;;;;5067893;28;20330;-72
2022/08/24 11:17:35;;;;;;;4.60;2.97;;;33.80;45.60;;;;;;5075202;28;20239;-70
2022/08/24 11:20:26;;;;;;;4.15;3.00;;;33.70;45.80;;;;;;5105762;27;20178;-69
2022/08/24 11:23:15;;;;;;;4.80;3.03;;;33.60;45.80;;;;;;5086310;28;20195;-70
2022/08/24 11:25:52;;;;;;;4.38;2.78;;;33.60;46.00;;;;;;5087721;28;20177;-70
2022/08/24 11:28:37;;;;;;;3.83;2.80;;;33.60;46.10;;;;;;5062356;28;20169;-70
2022/08/24 11:31:04;;;;;;;3.38;2.60;;;33.50;46.20;;;;;;5063911;28;20356;-71
2022/08/24 11:33:43;;;;;;;4.95;3.03;;;33.50;46.40;;;;;;5070457;28;20324;-70
2022/08/24 11:36:15;;;;;;;4.78;2.70;;;33.40;46.40;;;;;;5054198;28;20269;-69
2022/08/24 11:38:41;;;;;;;5.95;2.65;;;33.40;46.40;;;;;;5098147;28;20185;-70
2022/08/24 11:41:15;;;;;;;4.60;2.60;;;33.40;46.40;;;;;;5112882;28;20265;-70
2022/08/24 11:44:19;;;;;;;3.30;3.00;;;33.30;46.40;;;;;;5090817;28;20153;-69
2022/08/24 11:46:58;;;;;;;2.92;2.65;;;33.30;46.50;;;;;;5065573;28;20763;-69
2022/08/24 11:50:02;;;;;;;5.07;3.00;;;33.30;46.50;;;;;;5128251;27;20241;-69
2022/08/24 11:52:45;;;;;;;4.13;2.88;;;33.20;46.70;;;;;;5095308;27;20352;-70
2022/08/24 11:55:33;;;;;;;3.40;2.63;;;33.20;46.70;;;;;;5105245;27;20440;-70
2022/08/24 11:58:29;;;;;;;2.97;2.67;;;33.20;46.80;;;;;;5123046;27;20169;-70
2022/08/24 12:01:22;;;;;;;3.47;2.63;;;33.10;46.80;;;;;;5125946;27;20555;-70
2022/08/24 12:04:15;;;;;;;3.10;2.80;;;33.10;46.90;;;;;;5064470;28;20213;-70
2022/08/24 12:07:00;;;;;;;2.53;2.30;;;33.10;46.90;;;;;;5088036;28;20170;-70
2022/08/24 12:09:43;;;;;;;3.40;2.65;;;33.10;47.10;;;;;;5074127;28;20514;-70
2022/08/24 12:12:34;;;;;;;3.75;2.33;;;33.00;47.10;;;;;;5089087;28;20248;-70
2022/08/24 12:15:16;;;;;;;3.22;2.45;;;33.00;47.20;;;;;;5085122;28;20179;-70
2022/08/24 12:17:51;;;;;;;3.70;2.60;;;33.00;47.30;;;;;;5089799;28;20223;-70
2022/08/24 12:20:33;;;;;;;3.15;2.50;;;33.00;47.30;;;;;;5062274;28;20423;-70
2022/08/24 12:23:03;;;;;;;3.08;2.40;;;33.00;47.50;;;;;;5087878;28;20166;-70
2022/08/24 12:28:29;;;;;;;3.22;2.42;;;32.90;47.50;;;;;;5078398;28;20235;-70
2022/08/24 12:31:01;;;;;;;2.50;2.30;;;32.90;47.60;;;;;;5061893;28;20265;-70
2022/08/24 12:33:32;;;;;;;3.15;2.60;;;32.80;47.70;;;;;;5079136;28;20257;-69
2022/08/24 12:36:07;;;;;;;2.60;2.40;;;32.80;47.70;;;;;;5098362;28;20162;-69
2022/08/24 12:38:41;;;;;;;3.10;2.30;;;32.80;47.80;;;;;;5062618;28;20162;-69
2022/08/24 12:41:19;;;;;;;2.95;2.67;;;32.80;47.80;;;;;;5104351;28;20185;-69
2022/08/24 12:44:16;;;;;;;3.10;2.83;;;32.80;47.80;;;;;;5033889;28;20356;-70
2022/08/24 12:46:50;;;;;;;3.03;2.72;;;32.70;47.80;;;;;;5058698;28;20170;-69
2022/08/24 12:49:29;;;;;;;2.85;2.50;;;32.70;47.90;;;;;;5086093;28;20355;-70
2022/08/24 12:52:23;;;;;;;2.45;2.25;;;32.70;48.00;;;;;;5104715;28;20209;-70
2022/08/24 12:55:23;;;;;;;3.58;2.42;;;32.70;48.00;;;;;;5076330;28;20167;-70
2022/08/24 12:58:04;;;;;;;3.15;2.47;;;32.60;48.00;;;;;;5094031;28;20327;-72
2022/08/24 13:00:40;;;;;;;2.50;2.30;;;32.70;48.10;;;;;;5097189;28;20227;-70
2022/08/24 13:03:21;;;;;;;2.60;2.40;;;32.60;48.10;;;;;;5083776;28;20177;-70
2022/08/24 13:05:51;;;;;;;2.63;2.40;;;32.60;48.20;;;;;;5078745;28;20447;-70
2022/08/24 13:08:40;;;;;;;2.63;2.42;;;32.60;48.20;;;;;;5095213;28;20250;-70
2022/08/24 13:11:26;;;;;;;2.75;2.25;;;32.60;48.20;;;;;;5083832;28;20201;-70
2022/08/24 13:14:17;;;;;;;2.78;2.58;;;32.60;48.30;;;;;;5089263;28;20213;-71
2022/08/24 13:17:08;;;;;;;3.25;2.33;;;32.60;48.40;;;;;;5087989;28;20166;-70
2022/08/24 13:19:44;;;;;;;2.65;2.45;;;32.50;48.40;;;;;;5074405;28;20194;-70
2022/08/24 13:22:09;;;;;;;2.83;2.25;;;32.50;48.50;;;;;;5082380;28;20276;-71
2022/08/24 13:24:38;;;;;;;2.63;2.33;;;32.50;48.50;;;;;;5064341;28;20266;-70
2022/08/24 13:27:20;;;;;;;2.92;2.63;;;32.50;48.50;;;;;;5076610;28;20174;-70
2022/08/24 13:30:04;;;;;;;2.50;2.30;;;32.40;48.50;;;;;;5091997;28;20189;-72
2022/08/24 13:32:54;;;;;;;4.40;2.70;;;32.40;48.60;;;;;;5082143;28;20424;-70
2022/08/24 13:35:48;;;;;;;3.38;2.53;;;32.40;48.60;;;;;;5079453;28;20331;-70
2022/08/24 13:38:29;;;;;;;3.63;2.55;;;32.40;48.60;;;;;;5099327;28;20220;-70
2022/08/24 13:41:08;;;;;;;2.75;2.47;;;32.40;48.60;;;;;;5069580;28;20322;-70
2022/08/24 13:44:14;;;;;;;2.75;2.30;;;32.40;48.50;;;;;;5087280;28;20299;-70
2022/08/24 13:47:01;;;;;;;3.28;2.50;;;32.40;48.50;;;;;;5084863;28;20166;-70
2022/08/24 13:50:00;;;;;;;3.15;2.83;;;32.50;48.50;;;;;;5039382;28;20180;-70
2022/08/24 13:53:12;;;;;;;2.97;2.65;;;32.50;48.60;;;;;;5073959;28;20380;-70
2022/08/24 13:55:54;;;;;;;2.97;2.33;;;32.40;48.50;;;;;;5063835;28;20754;-70
2022/08/24 14:04:40;;;;;;;4.18;2.55;;;32.40;46.00;;;;;;5094020;28;20313;-70